createdAt,value
2022-11-07T00:01:32.560Z,8.70
2022-11-07T00:04:38.535Z,8.70
2022-11-07T00:07:44.998Z,8.74
2022-11-07T00:10:57.340Z,8.79
2022-11-07T00:14:04.158Z,8.82
2022-11-07T00:17:11.363Z,8.86
2022-11-07T00:20:18.167Z,8.92
2022-11-07T00:23:23.834Z,8.97
2022-11-07T00:26:33.058Z,9.01
2022-11-07T00:29:38.855Z,9.06
2022-11-07T00:32:45.356Z,9.11
2022-11-07T00:35:52.214Z,9.12
2022-11-07T00:38:59.362Z,9.11
2022-11-07T00:42:09.678Z,9.11
2022-11-07T00:45:16.388Z,9.10
2022-11-07T00:48:22.238Z,9.11
2022-11-07T00:51:30.648Z,9.11
2022-11-07T00:54:36.604Z,9.11
2022-11-07T00:57:46.115Z,9.11
2022-11-07T01:00:51.675Z,9.16
2022-11-07T01:04:17.046Z,9.19
2022-11-07T01:07:22.876Z,9.17
2022-11-07T01:10:29.369Z,9.14
2022-11-07T01:13:39.120Z,9.15
2022-11-07T01:16:45.984Z,9.13
2022-11-07T01:19:52.906Z,9.15
2022-11-07T01:22:59.426Z,9.16
2022-11-07T01:26:08.052Z,9.13
2022-11-07T01:29:18.135Z,9.12
2022-11-07T01:32:24.015Z,9.11
2022-11-07T01:35:30.442Z,9.09
2022-11-07T01:38:36.331Z,9.09
2022-11-07T01:41:42.967Z,9.08
2022-11-07T01:44:57.834Z,9.09
2022-11-07T01:48:07.458Z,9.14
2022-11-07T01:51:18.363Z,9.12
2022-11-07T01:54:30.766Z,9.14
2022-11-07T01:57:40.181Z,9.14
2022-11-07T02:00:49.487Z,9.14
2022-11-07T02:03:58.062Z,9.12
2022-11-07T02:07:08.581Z,9.14
2022-11-07T02:10:14.691Z,9.14
2022-11-07T02:13:26.005Z,9.12
2022-11-07T02:16:35.692Z,9.17
2022-11-07T02:19:44.885Z,9.16
2022-11-07T02:23:08.816Z,9.23
2022-11-07T02:26:18.426Z,9.21
2022-11-07T02:29:25.917Z,9.22
2022-11-07T02:32:32.538Z,9.19
2022-11-07T02:35:41.408Z,9.18
2022-11-07T02:38:51.917Z,9.18
2022-11-07T02:42:03.027Z,9.22
2022-11-07T02:45:10.782Z,9.25
2022-11-07T02:48:16.807Z,9.23
2022-11-07T02:51:23.304Z,9.24
2022-11-07T02:54:28.994Z,9.26
2022-11-07T02:57:38.346Z,9.27
2022-11-07T03:00:43.990Z,9.28
2022-11-07T03:03:52.290Z,9.29
2022-11-07T03:06:57.855Z,9.32
2022-11-07T03:10:04.287Z,9.36
2022-11-07T03:13:13.254Z,9.37
2022-11-07T03:16:21.414Z,9.38
2022-11-07T03:19:27.142Z,9.36
2022-11-07T03:22:33.752Z,9.39
2022-11-07T03:25:39.740Z,9.42
2022-11-07T03:28:48.998Z,9.45
2022-11-07T03:31:54.605Z,9.47
2022-11-07T03:35:01.087Z,9.47
2022-11-07T03:38:07.445Z,9.47
2022-11-07T03:41:17.451Z,9.45
2022-11-07T03:44:26.436Z,9.47
2022-11-07T03:47:32.984Z,9.48
2022-11-07T03:50:38.775Z,9.47
2022-11-07T03:53:45.366Z,9.50
2022-11-07T03:56:51.094Z,9.49
2022-11-07T04:00:00.445Z,9.51
2022-11-07T04:03:17.827Z,9.51
2022-11-07T04:06:24.481Z,9.49
2022-11-07T04:09:30.141Z,9.48
2022-11-07T04:12:52.639Z,9.51
2022-11-07T04:16:17.819Z,9.48
2022-11-07T04:19:38.457Z,9.44
2022-11-07T04:22:59.048Z,9.45
2022-11-07T04:26:35.585Z,9.47
2022-11-07T04:29:56.109Z,9.47
2022-11-07T04:33:19.433Z,9.50
2022-11-07T04:36:39.989Z,9.50
2022-11-07T04:40:00.545Z,9.52
2022-11-07T04:43:25.384Z,9.53
2022-11-07T04:46:46.422Z,9.53
2022-11-07T04:50:20.036Z,9.58
2022-11-07T04:53:40.556Z,9.59
2022-11-07T04:57:03.301Z,9.59
2022-11-07T05:00:24.576Z,9.58
2022-11-07T05:03:45.157Z,9.56
2022-11-07T05:07:17.731Z,9.58
2022-11-07T05:10:38.393Z,9.57
2022-11-07T05:14:03.272Z,9.60
2022-11-07T05:17:27.828Z,9.56
2022-11-07T05:20:51.629Z,9.52
2022-11-07T05:24:15.332Z,9.52
2022-11-07T05:27:36.149Z,9.48
2022-11-07T05:31:08.582Z,9.49
2022-11-07T05:34:29.447Z,9.52
2022-11-07T05:37:50.281Z,9.51
2022-11-07T05:41:13.834Z,9.54
2022-11-07T05:44:34.675Z,9.50
2022-11-07T05:48:00.351Z,9.47
2022-11-07T05:51:22.795Z,9.47
2022-11-07T05:54:43.329Z,9.48
2022-11-07T05:58:11.330Z,9.49
2022-11-07T06:01:32.088Z,9.49
2022-11-07T06:04:52.695Z,9.44
2022-11-07T06:08:14.757Z,9.47
2022-11-07T06:11:35.587Z,9.45
2022-11-07T06:14:59.438Z,9.44
2022-11-07T06:18:26.171Z,9.38
2022-11-07T06:21:46.760Z,9.33
2022-11-07T06:25:08.175Z,9.32
2022-11-07T06:28:40.620Z,9.30
2022-11-07T06:32:24.461Z,9.18
2022-11-07T06:35:45.680Z,9.13
2022-11-07T06:39:09.262Z,9.15
2022-11-07T06:42:48.103Z,9.18
2022-11-07T06:46:11.530Z,9.32
2022-11-07T06:49:38.042Z,9.40
2022-11-07T06:52:58.637Z,9.47
2022-11-07T06:56:19.599Z,9.49
2022-11-07T06:59:40.206Z,9.53
2022-11-07T07:03:07.025Z,9.56
2022-11-07T07:06:33.857Z,9.58
2022-11-07T07:09:54.488Z,9.67
2022-11-07T07:13:21.308Z,9.80
2022-11-07T07:16:42.053Z,9.84
2022-11-07T07:20:08.249Z,9.95
2022-11-07T07:23:34.839Z,10.03
2022-11-07T07:27:01.096Z,10.07
2022-11-07T07:30:25.545Z,10.06
2022-11-07T07:33:47.155Z,10.01
2022-11-07T07:37:07.870Z,9.98
2022-11-07T07:40:33.891Z,10.03
2022-11-07T07:44:03.693Z,10.07
2022-11-07T07:47:24.316Z,10.13
2022-11-07T07:50:45.032Z,10.23
2022-11-07T07:54:08.399Z,10.27
2022-11-07T07:57:31.810Z,10.39
2022-11-07T08:00:55.089Z,10.38
2022-11-07T08:04:18.508Z,10.36
2022-11-07T08:07:48.286Z,10.38
2022-11-07T08:11:10.779Z,10.38
2022-11-07T08:14:40.120Z,10.52
2022-11-07T08:17:47.076Z,10.56
2022-11-07T08:20:57.534Z,10.52
2022-11-07T08:24:03.998Z,10.34
2022-11-07T08:27:09.814Z,10.45
2022-11-07T08:30:20.271Z,10.42
2022-11-07T08:33:26.450Z,10.39
2022-11-07T08:36:33.484Z,10.41
2022-11-07T08:39:39.102Z,10.46
2022-11-07T08:42:45.552Z,10.43
2022-11-07T08:45:55.446Z,10.35
2022-11-07T08:49:03.465Z,10.27
2022-11-07T08:52:09.146Z,10.29
2022-11-07T08:55:16.079Z,10.30
2022-11-07T08:58:28.790Z,10.34
2022-11-07T09:01:55.941Z,10.28
2022-11-07T09:05:03.902Z,10.25
2022-11-07T09:08:10.740Z,10.29
2022-11-07T09:11:19.215Z,10.33
2022-11-07T09:14:26.124Z,10.38
2022-11-07T09:17:35.868Z,10.48
2022-11-07T09:20:42.452Z,10.52
2022-11-07T09:23:48.546Z,10.61
2022-11-07T09:26:55.026Z,10.68
2022-11-07T09:30:03.394Z,10.60
2022-11-07T09:33:13.999Z,10.68
2022-11-07T09:36:19.773Z,10.78
2022-11-07T09:39:26.264Z,10.64
2022-11-07T09:42:45.846Z,10.60
2022-11-07T09:45:58.134Z,10.63
2022-11-07T09:49:17.113Z,10.54
2022-11-07T09:52:31.813Z,10.52
2022-11-07T09:55:40.884Z,10.48
2022-11-07T09:58:51.771Z,10.54
2022-11-07T10:01:57.862Z,10.51
2022-11-07T10:05:08.085Z,10.41
2022-11-07T10:08:19.495Z,10.39
2022-11-07T10:11:37.135Z,10.48
2022-11-07T10:14:54.914Z,10.51
2022-11-07T10:18:13.011Z,10.51
2022-11-07T10:21:37.583Z,10.38
2022-11-07T10:24:56.859Z,10.29
2022-11-07T10:28:15.362Z,10.25
2022-11-07T10:31:22.779Z,10.21
2022-11-07T10:34:37.724Z,10.19
2022-11-07T10:37:47.245Z,10.22
2022-11-07T10:40:54.568Z,10.27
2022-11-07T10:44:03.790Z,10.29
2022-11-07T10:47:18.669Z,10.31
2022-11-07T10:50:26.563Z,10.30
2022-11-07T10:53:34.998Z,10.34
2022-11-07T10:56:48.850Z,10.31
2022-11-07T11:00:00.091Z,10.34
2022-11-07T11:03:19.493Z,10.38
2022-11-07T11:06:34.260Z,10.41
2022-11-07T11:09:58.323Z,10.48
2022-11-07T11:13:03.943Z,10.51
2022-11-07T11:16:26.303Z,10.61
2022-11-07T11:19:42.429Z,10.64
2022-11-07T11:22:49.226Z,10.71
2022-11-07T11:26:03.467Z,10.75
2022-11-07T11:29:14.622Z,10.80
2022-11-07T11:32:27.270Z,10.85
2022-11-07T11:35:42.358Z,10.92
2022-11-07T11:38:54.619Z,10.87
2022-11-07T11:42:05.161Z,10.98
2022-11-07T11:45:19.297Z,11.01
2022-11-07T11:48:27.916Z,11.05
2022-11-07T11:51:42.112Z,11.09
2022-11-07T11:54:49.983Z,11.13
2022-11-07T11:58:10.492Z,11.13
2022-11-07T12:04:58.452Z,11.21
2022-11-07T12:08:21.177Z,11.20
2022-11-07T12:11:34.035Z,11.27
2022-11-07T12:15:03.698Z,11.33
2022-11-07T12:18:18.614Z,11.37
2022-11-07T12:21:33.614Z,11.39
2022-11-07T12:24:48.895Z,11.47
2022-11-07T12:28:06.065Z,11.52
2022-11-07T12:31:29.000Z,11.55
2022-11-07T12:34:49.021Z,11.56
2022-11-07T12:38:11.097Z,11.56
2022-11-07T12:41:25.502Z,11.57
2022-11-07T12:45:00.779Z,11.61
2022-11-07T12:48:30.887Z,11.64
2022-11-07T12:51:49.053Z,11.61
2022-11-07T12:55:03.327Z,11.55
2022-11-07T12:58:17.822Z,11.50
2022-11-07T13:01:31.537Z,11.50
2022-11-07T13:04:45.842Z,11.54
2022-11-07T13:07:59.970Z,11.61
2022-11-07T13:11:18.157Z,11.67
2022-11-07T13:14:31.784Z,11.69
2022-11-07T13:17:43.807Z,11.72
2022-11-07T13:21:03.173Z,11.76
2022-11-07T13:24:09.299Z,11.80
2022-11-07T13:27:24.852Z,11.82
2022-11-07T13:30:38.397Z,11.82
2022-11-07T13:33:44.856Z,11.76
2022-11-07T13:36:55.683Z,11.71
2022-11-07T13:40:10.360Z,11.63
2022-11-07T13:43:20.589Z,11.57
2022-11-07T13:46:33.130Z,11.54
2022-11-07T13:49:44.985Z,11.55
2022-11-07T13:53:03.921Z,11.63
2022-11-07T13:56:18.401Z,11.70
2022-11-07T13:59:38.147Z,11.68
2022-11-07T14:02:53.390Z,11.63
2022-11-07T14:06:00.327Z,11.60
2022-11-07T14:09:10.515Z,11.58
2022-11-07T14:12:23.143Z,11.57
2022-11-07T14:15:30.184Z,11.51
2022-11-07T14:18:42.956Z,11.50
2022-11-07T14:21:49.789Z,11.48
2022-11-07T14:25:00.371Z,11.47
2022-11-07T14:28:10.484Z,11.45
2022-11-07T14:31:21.341Z,11.47
2022-11-07T14:34:27.007Z,11.48
2022-11-07T14:37:37.300Z,11.46
2022-11-07T14:40:46.769Z,11.41
2022-11-07T14:43:54.174Z,11.33
2022-11-07T14:47:01.376Z,11.25
2022-11-07T14:50:09.715Z,11.16
2022-11-07T14:53:22.916Z,11.17
2022-11-07T14:56:38.552Z,11.12
2022-11-07T14:59:44.905Z,11.06
2022-11-07T15:02:55.716Z,11.06
2022-11-07T15:06:03.124Z,11.00
2022-11-07T15:09:12.245Z,11.01
2022-11-07T15:12:22.515Z,10.95
2022-11-07T15:15:32.100Z,10.91
2022-11-07T15:18:43.832Z,10.92
2022-11-07T15:21:57.041Z,10.87
2022-11-07T15:25:03.014Z,10.79
2022-11-07T15:28:36.687Z,10.75
2022-11-07T15:31:43.103Z,10.70
2022-11-07T15:35:07.741Z,10.69
2022-11-07T15:38:21.784Z,10.62
2022-11-07T15:41:28.303Z,10.58
2022-11-07T15:44:36.714Z,10.54
2022-11-07T15:47:43.448Z,10.48
2022-11-07T15:50:50.941Z,10.45
2022-11-07T15:53:57.811Z,10.37
2022-11-07T15:57:07.125Z,10.33
2022-11-07T16:00:22.378Z,10.28
2022-11-07T16:03:29.750Z,10.23
2022-11-07T16:06:36.366Z,10.17
2022-11-07T16:09:42.276Z,10.15
2022-11-07T16:12:48.787Z,10.12
2022-11-07T16:16:03.093Z,10.10
2022-11-07T16:19:15.228Z,10.06
2022-11-07T16:22:21.112Z,10.00
2022-11-07T16:25:33.786Z,9.97
2022-11-07T16:28:39.701Z,9.96
2022-11-07T16:31:51.455Z,9.92
2022-11-07T16:34:57.049Z,9.87
2022-11-07T16:38:04.144Z,9.81
2022-11-07T16:41:09.739Z,9.79
2022-11-07T16:44:19.285Z,9.75
2022-11-07T16:47:32.514Z,9.74
2022-11-07T16:50:38.967Z,9.70
2022-11-07T16:53:44.748Z,9.65
2022-11-07T16:56:53.029Z,9.57
2022-11-07T16:59:58.719Z,9.56
2022-11-07T17:03:14.956Z,9.49
2022-11-07T17:06:28.691Z,9.44
2022-11-07T17:09:35.254Z,9.39
2022-11-07T17:12:41.810Z,9.36
2022-11-07T17:15:48.485Z,9.34
2022-11-07T17:18:57.036Z,9.30
2022-11-07T17:22:04.774Z,9.25
2022-11-07T17:25:11.426Z,9.19
2022-11-07T17:28:18.343Z,9.17
2022-11-07T17:31:24.327Z,9.18
2022-11-07T17:34:33.540Z,9.19
2022-11-07T17:37:39.383Z,9.17
2022-11-07T17:40:47.259Z,9.19
2022-11-07T17:43:53.133Z,9.17
2022-11-07T17:47:03.272Z,9.13
2022-11-07T17:50:16.836Z,9.12
2022-11-07T17:53:23.305Z,9.06
2022-11-07T17:56:30.829Z,9.03
2022-11-07T17:59:39.900Z,9.00
2022-11-07T18:02:51.329Z,8.92
2022-11-07T18:06:00.616Z,8.87
2022-11-07T18:09:09.501Z,8.82
2022-11-07T18:12:15.995Z,8.74
2022-11-07T18:15:21.959Z,8.70
2022-11-07T18:18:28.458Z,8.67
2022-11-07T18:21:36.825Z,8.67
2022-11-07T18:24:43.320Z,8.68
2022-11-07T18:27:48.941Z,8.68
2022-11-07T18:30:55.369Z,8.65
2022-11-07T18:34:03.354Z,8.66
2022-11-07T18:37:12.850Z,8.64
2022-11-07T18:40:18.815Z,8.61
2022-11-07T18:43:25.249Z,8.61
2022-11-07T18:46:30.839Z,8.59
2022-11-07T18:49:37.416Z,8.55
2022-11-07T18:52:45.929Z,8.49
2022-11-07T18:55:59.701Z,8.51
2022-11-07T18:59:06.702Z,8.48
2022-11-07T19:02:13.998Z,8.43
2022-11-07T19:05:20.453Z,8.39
2022-11-07T19:08:30.065Z,8.37
2022-11-07T19:11:35.840Z,8.35
2022-11-07T19:14:42.356Z,8.34
2022-11-07T19:17:48.402Z,8.39
2022-11-07T19:20:57.236Z,8.39
2022-11-07T19:24:06.236Z,8.35
2022-11-07T19:27:12.795Z,8.34
2022-11-07T19:30:18.833Z,8.32
2022-11-07T19:33:25.461Z,8.30
2022-11-07T19:36:31.237Z,8.27
2022-11-07T19:39:40.802Z,8.27
2022-11-07T19:42:46.439Z,8.26
2022-11-07T19:45:53.081Z,8.28
2022-11-07T19:48:59.374Z,8.27
2022-11-07T19:52:06.762Z,8.27
2022-11-07T19:55:15.370Z,8.27
2022-11-07T19:58:22.400Z,8.32
2022-11-07T20:01:30.362Z,8.37
2022-11-07T20:04:37.056Z,8.41
2022-11-07T20:07:43.002Z,8.44
2022-11-07T20:10:52.316Z,8.46
2022-11-07T20:14:03.207Z,8.45
2022-11-07T20:17:10.438Z,8.44
2022-11-07T20:20:16.361Z,8.41
2022-11-07T20:23:22.831Z,8.39
2022-11-07T20:26:34.139Z,8.27
2022-11-07T20:29:40.942Z,8.32
2022-11-07T20:32:48.014Z,8.33
2022-11-07T20:36:07.686Z,8.33
2022-11-07T20:39:15.083Z,8.34
2022-11-07T20:42:24.544Z,8.36
2022-11-07T20:45:30.159Z,8.36
2022-11-07T20:48:37.408Z,8.37
2022-11-07T20:51:45.895Z,8.39
2022-11-07T20:54:52.697Z,8.38
2022-11-07T20:58:03.727Z,8.38
2022-11-07T21:01:14.841Z,8.36
2022-11-07T21:04:21.078Z,8.34
2022-11-07T21:07:27.587Z,8.33
2022-11-07T21:10:33.226Z,8.31
2022-11-07T21:13:46.484Z,8.32
2022-11-07T21:16:53.820Z,8.30
2022-11-07T21:20:00.324Z,8.28
2022-11-07T21:23:07.748Z,8.28
2022-11-07T21:26:18.294Z,8.29
2022-11-07T21:29:29.479Z,8.29
2022-11-07T21:32:38.163Z,8.30
2022-11-07T21:35:44.546Z,8.32
2022-11-07T21:38:51.066Z,8.33
2022-11-07T21:41:56.772Z,8.37
2022-11-07T21:45:06.211Z,8.39
2022-11-07T21:48:12.898Z,8.44
2022-11-07T21:51:21.032Z,8.47
2022-11-07T21:54:26.756Z,8.49
2022-11-07T21:57:33.214Z,8.50
2022-11-07T22:00:42.247Z,8.52
2022-11-07T22:04:06.059Z,8.56
2022-11-07T22:07:12.953Z,8.59
2022-11-07T22:10:19.601Z,8.63
2022-11-07T22:13:25.199Z,8.65
2022-11-07T22:16:34.677Z,8.65
2022-11-07T22:19:40.460Z,8.68
2022-11-07T22:22:47.119Z,8.69
2022-11-07T22:25:52.708Z,8.72
2022-11-07T22:28:59.240Z,8.74
2022-11-07T22:32:08.197Z,8.77
2022-11-07T22:35:14.738Z,8.78
2022-11-07T22:38:20.684Z,8.80
2022-11-07T22:41:29.341Z,8.83
2022-11-07T22:44:34.986Z,8.80
2022-11-07T22:47:44.505Z,8.81
2022-11-07T22:50:50.687Z,8.77
2022-11-07T22:54:04.729Z,8.75
2022-11-07T22:57:14.085Z,8.73
2022-11-07T23:00:24.503Z,8.70
2022-11-07T23:03:34.253Z,8.73
2022-11-07T23:06:40.708Z,8.71
2022-11-07T23:09:46.337Z,8.71
2022-11-07T23:12:53.045Z,8.71
2022-11-07T23:15:58.685Z,8.69
2022-11-07T23:19:13.363Z,8.65
2022-11-07T23:22:19.024Z,8.56
2022-11-07T23:25:25.481Z,8.52
2022-11-07T23:28:31.296Z,8.49
2022-11-07T23:31:37.872Z,8.46
2022-11-07T23:34:46.268Z,8.44
2022-11-07T23:37:52.938Z,8.44
2022-11-07T23:40:58.937Z,8.42
2022-11-07T23:44:11.099Z,8.42
2022-11-07T23:47:34.798Z,8.37
2022-11-07T23:51:00.080Z,8.37
2022-11-07T23:54:23.369Z,8.36
2022-11-07T23:57:30.061Z,8.37
